sensor_id;sensor_type;location;lat;lon;timestamp;pressure;altitude;pressure_sealevel;temperature;humidity
9462;BME280;4769;42.660;23.262;2023-01-27T00:00:21;93137.59;;;1.37;100.00
9462;BME280;4769;42.660;23.262;2023-01-27T00:02:47;93133.38;;;1.43;100.00
9462;BME280;4769;42.660;23.262;2023-01-27T00:05:15;93144.69;;;1.55;100.00
9462;BME280;4769;42.660;23.262;2023-01-27T00:07:42;93130.75;;;1.49;100.00
9462;BME280;4769;42.660;23.262;2023-01-27T00:10:12;93138.63;;;1.61;100.00
9462;BME280;4769;42.660;23.262;2023-01-27T00:12:40;93129.47;;;1.58;100.00
9462;BME280;4769;42.660;23.262;2023-01-27T00:15:26;93125.47;;;1.56;100.00
9462;BME280;4769;42.660;23.262;2023-01-27T00:17:52;93131.19;;;1.71;100.00
9462;BME280;4769;42.660;23.262;2023-01-27T00:20:19;93115.84;;;1.63;100.00
9462;BME280;4769;42.660;23.262;2023-01-27T00:23:13;93117.78;;;1.43;100.00
9462;BME280;4769;42.660;23.262;2023-01-27T00:25:57;93102.81;;;1.38;100.00
9462;BME280;4769;42.660;23.262;2023-01-27T00:28:26;93106.31;;;1.57;100.00
9462;BME280;4769;42.660;23.262;2023-01-27T00:30:57;93102.88;;;1.63;100.00
9462;BME280;4769;42.660;23.262;2023-01-27T00:33:28;93101.94;;;1.51;100.00
9462;BME280;4769;42.660;23.262;2023-01-27T00:35:58;93106.94;;;1.52;100.00
9462;BME280;4769;42.660;23.262;2023-01-27T00:38:26;93093.63;;;1.42;100.00
9462;BME280;4769;42.660;23.262;2023-01-27T00:40:53;93103.63;;;1.39;100.00
9462;BME280;4769;42.660;23.262;2023-01-27T00:43:37;93096.59;;;1.46;100.00
9462;BME280;4769;42.660;23.262;2023-01-27T00:46:06;93101.13;;;1.57;100.00
9462;BME280;4769;42.660;23.262;2023-01-27T00:48:33;93107.06;;;1.64;100.00
9462;BME280;4769;42.660;23.262;2023-01-27T00:50:59;93113.00;;;1.71;100.00
9462;BME280;4769;42.660;23.262;2023-01-27T00:53:26;93111.56;;;1.75;100.00
9462;BME280;4769;42.660;23.262;2023-01-27T00:55:53;93110.38;;;1.77;100.00
9462;BME280;4769;42.660;23.262;2023-01-27T00:58:23;93099.66;;;1.61;100.00
9462;BME280;4769;42.660;23.262;2023-01-27T01:00:52;93107.84;;;1.64;100.00
9462;BME280;4769;42.660;23.262;2023-01-27T01:03:20;93106.16;;;1.76;100.00
9462;BME280;4769;42.660;23.262;2023-01-27T01:05:48;93099.31;;;1.82;100.00
9462;BME280;4769;42.660;23.262;2023-01-27T01:08:14;93107.69;;;1.84;100.00
9462;BME280;4769;42.660;23.262;2023-01-27T01:10:42;93103.09;;;1.86;100.00
9462;BME280;4769;42.660;23.262;2023-01-27T01:13:09;93104.97;;;1.72;100.00
9462;BME280;4769;42.660;23.262;2023-01-27T01:15:38;93106.75;;;1.47;100.00
9462;BME280;4769;42.660;23.262;2023-01-27T01:18:06;93108.91;;;1.57;100.00
9462;BME280;4769;42.660;23.262;2023-01-27T01:20:39;93102.88;;;1.63;100.00
9462;BME280;4769;42.660;23.262;2023-01-27T01:23:08;93115.97;;;1.74;100.00
9462;BME280;4769;42.660;23.262;2023-01-27T01:25:38;93110.56;;;1.76;100.00
9462;BME280;4769;42.660;23.262;2023-01-27T01:28:07;93091.09;;;1.60;100.00
9462;BME280;4769;42.660;23.262;2023-01-27T01:30:34;93107.69;;;1.59;100.00
9462;BME280;4769;42.660;23.262;2023-01-27T01:33:03;93099.06;;;1.65;100.00
9462;BME280;4769;42.660;23.262;2023-01-27T01:35:30;93117.59;;;1.69;100.00
9462;BME280;4769;42.660;23.262;2023-01-27T01:37:58;93122.59;;;1.70;100.00
9462;BME280;4769;42.660;23.262;2023-01-27T01:40:24;93128.44;;;1.66;100.00
9462;BME280;4769;42.660;23.262;2023-01-27T01:42:53;93112.72;;;1.54;100.00
9462;BME280;4769;42.660;23.262;2023-01-27T01:45:44;93115.69;;;1.58;100.00
9462;BME280;4769;42.660;23.262;2023-01-27T01:48:14;93122.50;;;1.52;100.00
9462;BME280;4769;42.660;23.262;2023-01-27T01:50:45;93113.13;;;1.51;100.00
9462;BME280;4769;42.660;23.262;2023-01-27T01:53:15;93109.38;;;1.47;100.00
9462;BME280;4769;42.660;23.262;2023-01-27T01:55:42;93107.94;;;1.51;100.00
9462;BME280;4769;42.660;23.262;2023-01-27T01:58:10;93109.78;;;1.44;100.00
9462;BME280;4769;42.660;23.262;2023-01-27T02:00:38;93105.91;;;1.53;100.00
9462;BME280;4769;42.660;23.262;2023-01-27T02:03:05;93086.63;;;1.43;100.00
9462;BME280;4769;42.660;23.262;2023-01-27T02:05:34;93073.25;;;1.39;100.00
9462;BME280;4769;42.660;23.262;2023-01-27T02:08:06;93080.44;;;1.44;100.00
9462;BME280;4769;42.660;23.262;2023-01-27T02:10:35;93075.56;;;1.54;100.00
9462;BME280;4769;42.660;23.262;2023-01-27T02:13:01;93068.72;;;1.59;100.00
9462;BME280;4769;42.660;23.262;2023-01-27T02:15:28;93067.31;;;1.63;100.00
9462;BME280;4769;42.660;23.262;2023-01-27T02:17:56;93060.44;;;1.44;100.00
9462;BME280;4769;42.660;23.262;2023-01-27T02:20:28;93059.13;;;1.60;100.00
9462;BME280;4769;42.660;23.262;2023-01-27T02:23:03;93051.13;;;1.61;100.00
9462;BME280;4769;42.660;23.262;2023-01-27T02:25:44;93054.47;;;1.44;100.00
9462;BME280;4769;42.660;23.262;2023-01-27T02:28:12;93043.38;;;1.55;100.00
9462;BME280;4769;42.660;23.262;2023-01-27T02:30:39;93039.66;;;1.44;100.00
9462;BME280;4769;42.660;23.262;2023-01-27T02:33:09;93051.81;;;1.50;100.00
9462;BME280;4769;42.660;23.262;2023-01-27T02:35:40;93042.06;;;1.70;100.00
9462;BME280;4769;42.660;23.262;2023-01-27T02:38:10;93033.25;;;1.47;100.00
9462;BME280;4769;42.660;23.262;2023-01-27T02:40:38;93044.19;;;1.55;100.00
9462;BME280;4769;42.660;23.262;2023-01-27T02:43:06;93034.41;;;1.51;100.00
9462;BME280;4769;42.660;23.262;2023-01-27T02:45:32;93043.97;;;1.57;100.00
9462;BME280;4769;42.660;23.262;2023-01-27T02:47:59;93055.16;;;1.57;100.00
9462;BME280;4769;42.660;23.262;2023-01-27T02:50:26;93059.06;;;1.66;100.00
9462;BME280;4769;42.660;23.262;2023-01-27T02:52:53;93058.06;;;1.67;100.00
9462;BME280;4769;42.660;23.262;2023-01-27T02:55:19;93046.34;;;1.58;100.00
9462;BME280;4769;42.660;23.262;2023-01-27T02:57:46;93056.22;;;1.74;100.00
9462;BME280;4769;42.660;23.262;2023-01-27T03:00:15;93050.16;;;1.56;100.00
9462;BME280;4769;42.660;23.262;2023-01-27T03:02:41;93047.47;;;1.69;100.00
9462;BME280;4769;42.660;23.262;2023-01-27T03:05:08;93056.94;;;1.81;100.00
9462;BME280;4769;42.660;23.262;2023-01-27T03:07:35;93045.13;;;1.85;100.00
9462;BME280;4769;42.660;23.262;2023-01-27T03:10:02;93044.50;;;1.90;100.00
9462;BME280;4769;42.660;23.262;2023-01-27T03:12:29;93040.28;;;1.89;100.00
9462;BME280;4769;42.660;23.262;2023-01-27T03:14:55;93035.06;;;1.71;100.00
9462;BME280;4769;42.660;23.262;2023-01-27T03:17:41;93033.78;;;1.80;100.00
9462;BME280;4769;42.660;23.262;2023-01-27T03:20:25;93021.94;;;1.66;100.00
9462;BME280;4769;42.660;23.262;2023-01-27T03:22:52;93022.84;;;1.71;100.00
9462;BME280;4769;42.660;23.262;2023-01-27T03:25:18;93021.41;;;1.75;100.00
9462;BME280;4769;42.660;23.262;2023-01-27T03:27:45;93014.44;;;1.76;100.00
9462;BME280;4769;42.660;23.262;2023-01-27T03:30:12;93010.47;;;1.73;100.00
9462;BME280;4769;42.660;23.262;2023-01-27T03:32:40;93019.91;;;1.68;100.00
9462;BME280;4769;42.660;23.262;2023-01-27T03:35:11;93015.91;;;1.65;100.00
9462;BME280;4769;42.660;23.262;2023-01-27T03:37:38;92998.97;;;1.63;100.00
9462;BME280;4769;42.660;23.262;2023-01-27T03:40:22;93006.75;;;1.63;100.00
9462;BME280;4769;42.660;23.262;2023-01-27T03:43:07;92998.31;;;1.67;100.00
9462;BME280;4769;42.660;23.262;2023-01-27T03:45:50;92990.16;;;1.64;100.00
9462;BME280;4769;42.660;23.262;2023-01-27T03:48:36;92978.53;;;1.66;100.00
9462;BME280;4769;42.660;23.262;2023-01-27T03:51:04;92982.41;;;1.57;100.00
9462;BME280;4769;42.660;23.262;2023-01-27T03:53:32;92981.31;;;1.47;100.00
9462;BME280;4769;42.660;23.262;2023-01-27T03:55:59;92987.25;;;1.54;100.00
9462;BME280;4769;42.660;23.262;2023-01-27T03:58:27;92997.78;;;1.59;100.00
9462;BME280;4769;42.660;23.262;2023-01-27T04:00:56;92982.91;;;1.48;100.00
9462;BME280;4769;42.660;23.262;2023-01-27T04:03:23;92982.59;;;1.38;100.00
9462;BME280;4769;42.660;23.262;2023-01-27T04:06:11;93003.09;;;1.46;100.00
9462;BME280;4769;42.660;23.262;2023-01-27T04:08:56;93003.31;;;1.44;100.00
9462;BME280;4769;42.660;23.262;2023-01-27T04:11:23;93016.63;;;1.54;100.00
9462;BME280;4769;42.660;23.262;2023-01-27T04:14:08;93033.00;;;1.55;100.00
9462;BME280;4769;42.660;23.262;2023-01-27T04:16:35;93042.47;;;1.67;100.00
9462;BME280;4769;42.660;23.262;2023-01-27T04:19:03;93039.03;;;1.73;100.00
9462;BME280;4769;42.660;23.262;2023-01-27T04:21:31;93041.59;;;1.80;100.00
9462;BME280;4769;42.660;23.262;2023-01-27T04:23:59;93051.28;;;1.91;100.00
9462;BME280;4769;42.660;23.262;2023-01-27T04:26:26;93055.41;;;1.98;100.00
9462;BME280;4769;42.660;23.262;2023-01-27T04:28:57;93060.28;;;1.88;100.00
9462;BME280;4769;42.660;23.262;2023-01-27T04:31:24;93061.66;;;1.91;100.00
9462;BME280;4769;42.660;23.262;2023-01-27T04:33:51;93058.25;;;1.90;100.00
9462;BME280;4769;42.660;23.262;2023-01-27T04:36:18;93072.78;;;1.98;100.00
9462;BME280;4769;42.660;23.262;2023-01-27T04:38:47;93064.41;;;1.96;100.00
9462;BME280;4769;42.660;23.262;2023-01-27T04:41:13;93058.81;;;1.99;100.00
9462;BME280;4769;42.660;23.262;2023-01-27T04:43:40;93069.66;;;1.89;100.00
9462;BME280;4769;42.660;23.262;2023-01-27T04:46:07;93084.78;;;1.99;100.00
9462;BME280;4769;42.660;23.262;2023-01-27T04:48:34;93081.53;;;2.03;100.00
9462;BME280;4769;42.660;23.262;2023-01-27T04:51:00;93059.06;;;1.91;100.00
9462;BME280;4769;42.660;23.262;2023-01-27T04:53:27;93059.47;;;1.88;100.00
9462;BME280;4769;42.660;23.262;2023-01-27T04:56:00;93096.34;;;1.78;100.00
9462;BME280;4769;42.660;23.262;2023-01-27T04:58:27;93105.25;;;1.89;100.00
9462;BME280;4769;42.660;23.262;2023-01-27T05:00:54;93074.81;;;1.96;100.00
9462;BME280;4769;42.660;23.262;2023-01-27T05:03:21;93077.97;;;1.80;100.00
9462;BME280;4769;42.660;23.262;2023-01-27T05:05:47;93086.97;;;1.77;100.00
9462;BME280;4769;42.660;23.262;2023-01-27T05:08:14;93076.94;;;1.81;100.00
9462;BME280;4769;42.660;23.262;2023-01-27T05:10:42;93076.75;;;1.82;100.00
9462;BME280;4769;42.660;23.262;2023-01-27T05:13:11;93075.94;;;1.82;100.00
9462;BME280;4769;42.660;23.262;2023-01-27T05:15:38;93081.22;;;1.93;100.00
9462;BME280;4769;42.660;23.262;2023-01-27T05:18:04;93071.84;;;1.92;100.00
9462;BME280;4769;42.660;23.262;2023-01-27T05:20:31;93064.16;;;1.79;100.00
9462;BME280;4769;42.660;23.262;2023-01-27T05:22:58;93065.78;;;1.74;100.00
9462;BME280;4769;42.660;23.262;2023-01-27T05:25:41;93067.28;;;1.88;100.00
9462;BME280;4769;42.660;23.262;2023-01-27T05:28:08;93067.94;;;1.83;100.00
9462;BME280;4769;42.660;23.262;2023-01-27T05:30:37;93068.50;;;1.85;100.00
9462;BME280;4769;42.660;23.262;2023-01-27T05:33:04;93064.13;;;1.86;100.00
9462;BME280;4769;42.660;23.262;2023-01-27T05:35:32;93066.50;;;1.87;100.00
9462;BME280;4769;42.660;23.262;2023-01-27T05:37:59;93044.75;;;1.82;100.00
9462;BME280;4769;42.660;23.262;2023-01-27T05:40:26;93045.78;;;1.81;100.00
9462;BME280;4769;42.660;23.262;2023-01-27T05:42:53;93054.94;;;1.83;100.00
9462;BME280;4769;42.660;23.262;2023-01-27T05:45:20;93058.31;;;1.84;100.00
9462;BME280;4769;42.660;23.262;2023-01-27T05:47:49;93048.72;;;1.84;100.00
9462;BME280;4769;42.660;23.262;2023-01-27T05:50:17;93041.25;;;1.70;100.00
9462;BME280;4769;42.660;23.262;2023-01-27T05:52:44;93043.44;;;1.73;100.00
9462;BME280;4769;42.660;23.262;2023-01-27T05:55:10;93053.56;;;1.81;100.00
9462;BME280;4769;42.660;23.262;2023-01-27T05:57:37;93062.22;;;1.93;100.00
9462;BME280;4769;42.660;23.262;2023-01-27T06:00:05;93062.84;;;1.95;100.00
9462;BME280;4769;42.660;23.262;2023-01-27T06:02:32;93059.38;;;2.01;100.00
9462;BME280;4769;42.660;23.262;2023-01-27T06:05:00;93071.16;;;2.03;100.00
9462;BME280;4769;42.660;23.262;2023-01-27T06:07:27;93049.91;;;1.88;100.00
9462;BME280;4769;42.660;23.262;2023-01-27T06:09:53;93052.13;;;1.85;100.00
9462;BME280;4769;42.660;23.262;2023-01-27T06:12:20;93066.22;;;1.95;100.00
9462;BME280;4769;42.660;23.262;2023-01-27T06:14:47;93064.94;;;2.04;100.00
9462;BME280;4769;42.660;23.262;2023-01-27T06:17:14;93061.25;;;1.94;100.00
9462;BME280;4769;42.660;23.262;2023-01-27T06:19:40;93056.09;;;1.87;100.00
9462;BME280;4769;42.660;23.262;2023-01-27T06:22:08;93056.56;;;1.78;100.00
9462;BME280;4769;42.660;23.262;2023-01-27T06:24:35;93050.53;;;1.84;100.00
9462;BME280;4769;42.660;23.262;2023-01-27T06:27:02;93066.50;;;1.87;100.00
9462;BME280;4769;42.660;23.262;2023-01-27T06:29:28;93077.38;;;1.78;100.00
9462;BME280;4769;42.660;23.262;2023-01-27T06:31:55;93071.03;;;3.18;100.00
9462;BME280;4769;42.660;23.262;2023-01-27T06:34:22;93080.44;;;2.89;100.00
9462;BME280;4769;42.660;23.262;2023-01-27T06:36:49;93074.88;;;2.50;100.00
9462;BME280;4769;42.660;23.262;2023-01-27T06:39:19;93068.38;;;2.41;100.00
9462;BME280;4769;42.660;23.262;2023-01-27T06:41:48;93074.19;;;2.18;100.00
9462;BME280;4769;42.660;23.262;2023-01-27T06:44:15;93087.91;;;2.07;100.00
9462;BME280;4769;42.660;23.262;2023-01-27T06:46:42;93082.22;;;2.17;100.00
9462;BME280;4769;42.660;23.262;2023-01-27T06:49:09;93069.50;;;2.09;100.00
9462;BME280;4769;42.660;23.262;2023-01-27T06:51:36;93078.44;;;1.95;100.00
9462;BME280;4769;42.660;23.262;2023-01-27T06:54:03;93082.34;;;2.04;100.00
9462;BME280;4769;42.660;23.262;2023-01-27T06:56:31;93080.97;;;2.01;100.00
9462;BME280;4769;42.660;23.262;2023-01-27T06:59:03;93085.03;;;2.15;100.00
9462;BME280;4769;42.660;23.262;2023-01-27T07:01:33;93072.09;;;2.09;100.00
9462;BME280;4769;42.660;23.262;2023-01-27T07:04:01;93066.06;;;1.90;100.00
9462;BME280;4769;42.660;23.262;2023-01-27T07:06:28;93087.50;;;2.10;100.00
9462;BME280;4769;42.660;23.262;2023-01-27T07:08:54;93085.03;;;2.15;100.00
9462;BME280;4769;42.660;23.262;2023-01-27T07:11:21;93101.38;;;2.22;100.00
9462;BME280;4769;42.660;23.262;2023-01-27T07:13:51;93101.50;;;2.27;100.00
9462;BME280;4769;42.660;23.262;2023-01-27T07:16:17;93098.19;;;2.20;100.00
9462;BME280;4769;42.660;23.262;2023-01-27T07:18:44;93099.94;;;2.02;100.00
9462;BME280;4769;42.660;23.262;2023-01-27T07:21:11;93088.25;;;2.11;100.00
9462;BME280;4769;42.660;23.262;2023-01-27T07:23:38;93087.53;;;2.04;100.00
9462;BME280;4769;42.660;23.262;2023-01-27T07:26:05;93089.78;;;2.18;100.00
9462;BME280;4769;42.660;23.262;2023-01-27T07:28:32;93093.50;;;2.29;100.00
9462;BME280;4769;42.660;23.262;2023-01-27T07:31:02;93089.59;;;2.20;100.00
9462;BME280;4769;42.660;23.262;2023-01-27T07:33:28;93080.88;;;1.90;100.00
9462;BME280;4769;42.660;23.262;2023-01-27T07:35:55;93085.88;;;2.09;100.00
9462;BME280;4769;42.660;23.262;2023-01-27T07:38:22;93098.72;;;2.04;100.00
9462;BME280;4769;42.660;23.262;2023-01-27T07:40:49;93095.25;;;1.92;100.00
9462;BME280;4769;42.660;23.262;2023-01-27T07:43:15;93095.97;;;1.99;100.00
9462;BME280;4769;42.660;23.262;2023-01-27T07:45:42;93099.47;;;2.11;100.00
9462;BME280;4769;42.660;23.262;2023-01-27T07:48:14;93094.22;;;2.18;100.00
9462;BME280;4769;42.660;23.262;2023-01-27T07:50:41;93097.34;;;2.02;100.00
9462;BME280;4769;42.660;23.262;2023-01-27T07:53:09;93099.31;;;2.06;100.00
9462;BME280;4769;42.660;23.262;2023-01-27T07:55:36;93105.44;;;2.12;100.00
9462;BME280;4769;42.660;23.262;2023-01-27T07:58:03;93103.41;;;2.20;100.00
9462;BME280;4769;42.660;23.262;2023-01-27T08:00:30;93103.97;;;2.22;100.00
9462;BME280;4769;42.660;23.262;2023-01-27T08:02:58;93098.59;;;2.17;100.00
9462;BME280;4769;42.660;23.262;2023-01-27T08:05:27;93101.81;;;2.19;100.00
9462;BME280;4769;42.660;23.262;2023-01-27T08:07:54;93083.78;;;2.00;100.00
9462;BME280;4769;42.660;23.262;2023-01-27T08:10:23;93086.28;;;2.13;100.00
9462;BME280;4769;42.660;23.262;2023-01-27T08:12:49;93088.50;;;2.27;100.00
9462;BME280;4769;42.660;23.262;2023-01-27T08:15:16;93090.97;;;2.22;100.00
9462;BME280;4769;42.660;23.262;2023-01-27T08:17:43;93089.91;;;2.48;100.00
9462;BME280;4769;42.660;23.262;2023-01-27T08:20:10;93078.06;;;2.70;100.00
9462;BME280;4769;42.660;23.262;2023-01-27T08:22:39;93086.00;;;2.75;100.00
9462;BME280;4769;42.660;23.262;2023-01-27T08:25:07;93093.53;;;2.83;100.00
9462;BME280;4769;42.660;23.262;2023-01-27T08:27:34;93092.00;;;2.75;100.00
9462;BME280;4769;42.660;23.262;2023-01-27T08:30:01;93099.59;;;2.77;99.03
9462;BME280;4769;42.660;23.262;2023-01-27T08:32:28;93100.59;;;2.58;99.95
9462;BME280;4769;42.660;23.262;2023-01-27T08:34:54;93098.88;;;2.52;100.00
9462;BME280;4769;42.660;23.262;2023-01-27T08:37:21;93102.50;;;2.69;100.00
9462;BME280;4769;42.660;23.262;2023-01-27T08:39:49;93110.66;;;2.54;99.60
9462;BME280;4769;42.660;23.262;2023-01-27T08:42:16;93117.13;;;2.45;100.00
9462;BME280;4769;42.660;23.262;2023-01-27T08:44:43;93105.94;;;2.63;100.00
9462;BME280;4769;42.660;23.262;2023-01-27T08:47:10;93108.38;;;2.40;100.00
9462;BME280;4769;42.660;23.262;2023-01-27T08:49:37;93111.75;;;2.22;100.00
9462;BME280;4769;42.660;23.262;2023-01-27T08:52:03;93102.53;;;2.26;100.00
9462;BME280;4769;42.660;23.262;2023-01-27T08:54:30;93112.56;;;2.23;100.00
9462;BME280;4769;42.660;23.262;2023-01-27T08:56:58;93115.69;;;2.31;99.46
9462;BME280;4769;42.660;23.262;2023-01-27T08:59:25;93111.06;;;2.33;97.64
9462;BME280;4769;42.660;23.262;2023-01-27T09:01:52;93120.75;;;2.44;98.78
9462;BME280;4769;42.660;23.262;2023-01-27T09:04:20;93116.72;;;2.48;99.22
9462;BME280;4769;42.660;23.262;2023-01-27T09:06:47;93107.97;;;2.43;99.04
9462;BME280;4769;42.660;23.262;2023-01-27T09:09:14;93111.94;;;2.45;100.00
9462;BME280;4769;42.660;23.262;2023-01-27T09:11:42;93108.19;;;2.59;99.56
9462;BME280;4769;42.660;23.262;2023-01-27T09:14:11;93112.69;;;2.52;98.47
9462;BME280;4769;42.660;23.262;2023-01-27T09:16:38;93108.34;;;2.64;98.29
9462;BME280;4769;42.660;23.262;2023-01-27T09:19:05;93108.13;;;2.48;98.56
9462;BME280;4769;42.660;23.262;2023-01-27T09:21:31;93109.28;;;2.52;99.49
9462;BME280;4769;42.660;23.262;2023-01-27T09:23:58;93114.75;;;2.44;98.87
9462;BME280;4769;42.660;23.262;2023-01-27T09:26:25;93102.56;;;2.62;99.02
9462;BME280;4769;42.660;23.262;2023-01-27T09:28:51;93097.50;;;2.49;98.65
9462;BME280;4769;42.660;23.262;2023-01-27T09:31:20;93099.59;;;2.41;99.67
9462;BME280;4769;42.660;23.262;2023-01-27T09:33:46;93087.31;;;2.48;99.73
9462;BME280;4769;42.660;23.262;2023-01-27T09:36:16;93083.25;;;2.34;100.00
9462;BME280;4769;42.660;23.262;2023-01-27T09:38:48;93088.63;;;2.14;100.00
9462;BME280;4769;42.660;23.262;2023-01-27T09:41:31;93094.38;;;2.23;100.00
9462;BME280;4769;42.660;23.262;2023-01-27T09:44:24;93073.50;;;1.87;100.00
9462;BME280;4769;42.660;23.262;2023-01-27T09:47:08;93086.91;;;1.84;100.00
9462;BME280;4769;42.660;23.262;2023-01-27T09:49:51;93061.63;;;1.73;100.00
9462;BME280;4769;42.660;23.262;2023-01-27T09:52:39;93066.66;;;1.68;100.00
9462;BME280;4769;42.660;23.262;2023-01-27T09:55:14;93058.22;;;1.48;100.00
9462;BME280;4769;42.660;23.262;2023-01-27T09:57:51;93066.75;;;1.55;100.00
9462;BME280;4769;42.660;23.262;2023-01-27T10:00:31;93053.16;;;1.59;100.00
9462;BME280;4769;42.660;23.262;2023-01-27T10:03:27;93054.41;;;1.75;100.00
9462;BME280;4769;42.660;23.262;2023-01-27T10:06:13;93054.38;;;1.57;100.00
9462;BME280;4769;42.660;23.262;2023-01-27T10:09:05;93056.97;;;1.57;100.00
9462;BME280;4769;42.660;23.262;2023-01-27T10:11:43;93054.53;;;1.62;100.00
9462;BME280;4769;42.660;23.262;2023-01-27T10:14:22;93044.59;;;1.52;100.00
9462;BME280;4769;42.660;23.262;2023-01-27T10:17:06;93047.16;;;1.28;100.00
9462;BME280;4769;42.660;23.262;2023-01-27T10:19:46;93056.47;;;1.11;100.00
9462;BME280;4769;42.660;23.262;2023-01-27T10:22:21;93045.34;;;1.35;100.00
9462;BME280;4769;42.660;23.262;2023-01-27T10:25:02;93049.50;;;1.36;100.00
9462;BME280;4769;42.660;23.262;2023-01-27T10:27:35;93039.78;;;1.31;100.00
9462;BME280;4769;42.660;23.262;2023-01-27T10:30:09;93040.94;;;1.35;100.00
9462;BME280;4769;42.660;23.262;2023-01-27T10:32:43;93035.69;;;1.42;100.00
9462;BME280;4769;42.660;23.262;2023-01-27T10:35:16;93023.72;;;1.41;100.00
9462;BME280;4769;42.660;23.262;2023-01-27T10:37:52;93046.78;;;1.55;100.00
9462;BME280;4769;42.660;23.262;2023-01-27T10:40:30;93030.13;;;1.63;100.00
9462;BME280;4769;42.660;23.262;2023-01-27T10:43:04;93040.56;;;1.56;100.00
9462;BME280;4769;42.660;23.262;2023-01-27T10:45:35;93032.41;;;1.53;100.00
9462;BME280;4769;42.660;23.262;2023-01-27T10:48:20;93029.16;;;1.82;100.00
9462;BME280;4769;42.660;23.262;2023-01-27T10:50:54;93031.84;;;1.93;100.00
9462;BME280;4769;42.660;23.262;2023-01-27T10:53:27;93036.78;;;2.01;100.00
9462;BME280;4769;42.660;23.262;2023-01-27T10:55:59;93046.50;;;1.88;100.00
9462;BME280;4769;42.660;23.262;2023-01-27T10:58:38;93032.78;;;1.81;100.00
9462;BME280;4769;42.660;23.262;2023-01-27T11:01:11;93052.84;;;1.92;100.00
9462;BME280;4769;42.660;23.262;2023-01-27T11:03:43;93039.31;;;2.08;100.00
9462;BME280;4769;42.660;23.262;2023-01-27T11:06:15;93039.94;;;2.03;100.00
9462;BME280;4769;42.660;23.262;2023-01-27T11:08:45;93026.69;;;1.69;100.00
9462;BME280;4769;42.660;23.262;2023-01-27T11:11:14;93036.44;;;1.73;100.00
9462;BME280;4769;42.660;23.262;2023-01-27T11:14:03;93045.31;;;1.84;100.00
9462;BME280;4769;42.660;23.262;2023-01-27T11:16:39;93046.16;;;2.02;100.00
9462;BME280;4769;42.660;23.262;2023-01-27T11:19:14;93037.19;;;1.98;100.00
9462;BME280;4769;42.660;23.262;2023-01-27T11:21:44;93036.03;;;1.94;100.00
9462;BME280;4769;42.660;23.262;2023-01-27T11:24:20;93030.47;;;1.91;100.00
9462;BME280;4769;42.660;23.262;2023-01-27T11:26:55;93028.25;;;1.70;100.00
9462;BME280;4769;42.660;23.262;2023-01-27T11:29:31;93026.97;;;1.79;100.00
9462;BME280;4769;42.660;23.262;2023-01-27T11:32:03;93032.69;;;1.69;100.00
9462;BME280;4769;42.660;23.262;2023-01-27T11:34:38;93024.94;;;1.63;100.00
9462;BME280;4769;42.660;23.262;2023-01-27T11:37:16;93010.25;;;1.26;100.00
9462;BME280;4769;42.660;23.262;2023-01-27T11:39:44;93022.97;;;1.34;100.00
9462;BME280;4769;42.660;23.262;2023-01-27T11:42:12;93022.06;;;1.46;100.00
9462;BME280;4769;42.660;23.262;2023-01-27T11:44:41;93023.72;;;1.41;100.00
9462;BME280;4769;42.660;23.262;2023-01-27T11:47:15;93013.38;;;1.34;100.00
9462;BME280;4769;42.660;23.262;2023-01-27T11:49:46;93014.22;;;1.28;100.00
9462;BME280;4769;42.660;23.262;2023-01-27T11:52:19;93010.44;;;1.24;100.00
9462;BME280;4769;42.660;23.262;2023-01-27T11:54:51;93011.22;;;1.31;100.00
9462;BME280;4769;42.660;23.262;2023-01-27T11:57:21;93014.63;;;1.25;100.00
9462;BME280;4769;42.660;23.262;2023-01-27T11:59:52;93010.94;;;1.15;100.00
9462;BME280;4769;42.660;23.262;2023-01-27T12:02:26;92994.06;;;0.99;100.00
9462;BME280;4769;42.660;23.262;2023-01-27T12:05:00;93008.41;;;1.02;100.00
9462;BME280;4769;42.660;23.262;2023-01-27T12:07:37;93012.69;;;1.21;100.00
9462;BME280;4769;42.660;23.262;2023-01-27T12:10:25;93016.34;;;1.13;100.00
9462;BME280;4769;42.660;23.262;2023-01-27T12:12:54;93014.50;;;1.14;100.00
9462;BME280;4769;42.660;23.262;2023-01-27T12:15:24;93012.56;;;1.09;100.00
9462;BME280;4769;42.660;23.262;2023-01-27T12:17:55;93016.16;;;1.08;100.00
9462;BME280;4769;42.660;23.262;2023-01-27T12:20:35;93016.50;;;1.18;100.00
9462;BME280;4769;42.660;23.262;2023-01-27T12:23:13;93012.09;;;1.68;100.00
9462;BME280;4769;42.660;23.262;2023-01-27T12:25:46;93005.63;;;2.49;100.00
9462;BME280;4769;42.660;23.262;2023-01-27T12:28:22;93006.84;;;1.74;100.00
9462;BME280;4769;42.660;23.262;2023-01-27T12:30:51;93006.13;;;1.43;100.00
9462;BME280;4769;42.660;23.262;2023-01-27T12:33:23;93007.06;;;1.48;100.00
9462;BME280;4769;42.660;23.262;2023-01-27T12:35:57;93005.94;;;1.62;100.00
9462;BME280;4769;42.660;23.262;2023-01-27T12:38:28;93006.44;;;1.53;100.00
9462;BME280;4769;42.660;23.262;2023-01-27T12:41:00;93012.16;;;1.37;100.00
9462;BME280;4769;42.660;23.262;2023-01-27T12:43:28;93014.13;;;1.41;100.00
9462;BME280;4769;42.660;23.262;2023-01-27T12:46:17;93016.06;;;1.46;100.00
9462;BME280;4769;42.660;23.262;2023-01-27T12:48:47;93012.47;;;1.47;100.00
9462;BME280;4769;42.660;23.262;2023-01-27T12:51:17;93012.22;;;1.55;100.00
9462;BME280;4769;42.660;23.262;2023-01-27T12:53:47;93000.66;;;1.51;100.00
9462;BME280;4769;42.660;23.262;2023-01-27T12:56:16;93009.03;;;1.53;100.00
9462;BME280;4769;42.660;23.262;2023-01-27T12:58:44;93016.22;;;1.75;100.00
9462;BME280;4769;42.660;23.262;2023-01-27T13:01:23;93011.94;;;1.63;100.00
9462;BME280;4769;42.660;23.262;2023-01-27T13:03:54;92997.91;;;1.46;100.00
9462;BME280;4769;42.660;23.262;2023-01-27T13:06:29;93005.75;;;1.39;100.00
9462;BME280;4769;42.660;23.262;2023-01-27T13:08:59;93013.16;;;1.36;100.00
9462;BME280;4769;42.660;23.262;2023-01-27T13:11:33;93001.56;;;1.63;100.00
9462;BME280;4769;42.660;23.262;2023-01-27T13:14:06;93003.41;;;1.56;100.00
9462;BME280;4769;42.660;23.262;2023-01-27T13:16:33;93010.69;;;1.47;100.00
9462;BME280;4769;42.660;23.262;2023-01-27T13:19:00;93004.75;;;1.40;100.00
9462;BME280;4769;42.660;23.262;2023-01-27T13:21:31;93018.44;;;1.23;100.00
9462;BME280;4769;42.660;23.262;2023-01-27T13:24:06;93011.09;;;1.20;100.00
9462;BME280;4769;42.660;23.262;2023-01-27T13:26:38;93019.16;;;1.36;100.00
9462;BME280;4769;42.660;23.262;2023-01-27T13:29:11;93020.78;;;1.31;100.00